sensor_id;sensor_type;location;lat;lon;timestamp;P1;durP1;ratioP1;P2;durP2;ratioP2
11907;SDS011;6014;47.690;9.130;2023-08-20T00:02:30;11.48;;;5.35;;
11907;SDS011;6014;47.690;9.130;2023-08-20T00:05:01;9.80;;;4.80;;
11907;SDS011;6014;47.690;9.130;2023-08-20T00:07:30;7.97;;;4.72;;
11907;SDS011;6014;47.690;9.130;2023-08-20T00:09:59;8.20;;;4.72;;
11907;SDS011;6014;47.690;9.130;2023-08-20T00:12:30;8.40;;;4.70;;
11907;SDS011;6014;47.690;9.130;2023-08-20T00:14:58;7.65;;;4.85;;
11907;SDS011;6014;47.690;9.130;2023-08-20T00:17:32;8.48;;;4.70;;
11907;SDS011;6014;47.690;9.130;2023-08-20T00:22:43;7.88;;;4.72;;
11907;SDS011;6014;47.690;9.130;2023-08-20T00:25:12;9.98;;;5.10;;
11907;SDS011;6014;47.690;9.130;2023-08-20T00:27:43;9.95;;;5.07;;
11907;SDS011;6014;47.690;9.130;2023-08-20T00:30:11;11.40;;;4.90;;
11907;SDS011;6014;47.690;9.130;2023-08-20T00:32:40;7.63;;;4.78;;
11907;SDS011;6014;47.690;9.130;2023-08-20T00:35:21;9.25;;;4.57;;
11907;SDS011;6014;47.690;9.130;2023-08-20T00:37:50;7.60;;;4.65;;
11907;SDS011;6014;47.690;9.130;2023-08-20T00:40:18;8.57;;;4.57;;
11907;SDS011;6014;47.690;9.130;2023-08-20T00:45:40;8.18;;;4.95;;
11907;SDS011;6014;47.690;9.130;2023-08-20T00:48:09;7.03;;;4.47;;
11907;SDS011;6014;47.690;9.130;2023-08-20T00:50:39;8.85;;;4.85;;
11907;SDS011;6014;47.690;9.130;2023-08-20T00:53:08;9.07;;;5.35;;
11907;SDS011;6014;47.690;9.130;2023-08-20T00:55:38;8.65;;;5.35;;
11907;SDS011;6014;47.690;9.130;2023-08-20T00:58:06;7.53;;;4.85;;
11907;SDS011;6014;47.690;9.130;2023-08-20T01:00:35;9.98;;;4.85;;
11907;SDS011;6014;47.690;9.130;2023-08-20T01:05:57;8.07;;;4.35;;
11907;SDS011;6014;47.690;9.130;2023-08-20T01:08:37;8.25;;;4.97;;
11907;SDS011;6014;47.690;9.130;2023-08-20T01:11:09;8.50;;;4.93;;
11907;SDS011;6014;47.690;9.130;2023-08-20T01:13:43;6.75;;;4.88;;
11907;SDS011;6014;47.690;9.130;2023-08-20T01:16:13;7.03;;;5.00;;
11907;SDS011;6014;47.690;9.130;2023-08-20T01:18:42;7.40;;;4.88;;
11907;SDS011;6014;47.690;9.130;2023-08-20T01:21:13;9.82;;;5.07;;
11907;SDS011;6014;47.690;9.130;2023-08-20T01:24:01;8.18;;;5.13;;
11907;SDS011;6014;47.690;9.130;2023-08-20T01:26:46;7.30;;;5.03;;
11907;SDS011;6014;47.690;9.130;2023-08-20T01:29:25;9.80;;;5.07;;
11907;SDS011;6014;47.690;9.130;2023-08-20T01:31:54;11.27;;;4.95;;
11907;SDS011;6014;47.690;9.130;2023-08-20T01:34:22;7.82;;;4.90;;
11907;SDS011;6014;47.690;9.130;2023-08-20T01:36:50;8.73;;;5.28;;
11907;SDS011;6014;47.690;9.130;2023-08-20T01:39:18;9.40;;;4.93;;
11907;SDS011;6014;47.690;9.130;2023-08-20T01:41:46;9.05;;;4.70;;
11907;SDS011;6014;47.690;9.130;2023-08-20T01:44:14;7.35;;;5.25;;
11907;SDS011;6014;47.690;9.130;2023-08-20T01:46:44;7.80;;;5.28;;
11907;SDS011;6014;47.690;9.130;2023-08-20T01:49:12;9.32;;;5.47;;
11907;SDS011;6014;47.690;9.130;2023-08-20T01:51:40;8.23;;;5.07;;
11907;SDS011;6014;47.690;9.130;2023-08-20T01:54:08;9.60;;;5.55;;
11907;SDS011;6014;47.690;9.130;2023-08-20T01:56:36;8.88;;;5.10;;
11907;SDS011;6014;47.690;9.130;2023-08-20T01:59:04;7.68;;;4.90;;
11907;SDS011;6014;47.690;9.130;2023-08-20T02:01:32;6.80;;;4.88;;
11907;SDS011;6014;47.690;9.130;2023-08-20T02:04:02;8.00;;;5.13;;
11907;SDS011;6014;47.690;9.130;2023-08-20T02:06:30;8.07;;;5.70;;
11907;SDS011;6014;47.690;9.130;2023-08-20T02:08:58;8.13;;;5.03;;
11907;SDS011;6014;47.690;9.130;2023-08-20T02:11:26;8.82;;;5.25;;
11907;SDS011;6014;47.690;9.130;2023-08-20T02:13:56;7.05;;;4.90;;
11907;SDS011;6014;47.690;9.130;2023-08-20T02:16:25;8.05;;;5.40;;
11907;SDS011;6014;47.690;9.130;2023-08-20T02:18:53;9.18;;;6.00;;
11907;SDS011;6014;47.690;9.130;2023-08-20T02:21:22;9.27;;;6.13;;
11907;SDS011;6014;47.690;9.130;2023-08-20T02:23:50;8.88;;;5.72;;
11907;SDS011;6014;47.690;9.130;2023-08-20T02:26:18;11.88;;;5.95;;
11907;SDS011;6014;47.690;9.130;2023-08-20T02:28:46;8.75;;;5.72;;
11907;SDS011;6014;47.690;9.130;2023-08-20T02:31:14;8.32;;;5.93;;
11907;SDS011;6014;47.690;9.130;2023-08-20T02:33:43;8.18;;;5.95;;
11907;SDS011;6014;47.690;9.130;2023-08-20T02:38:59;7.60;;;5.50;;
11907;SDS011;6014;47.690;9.130;2023-08-20T02:41:27;12.90;;;6.00;;
11907;SDS011;6014;47.690;9.130;2023-08-20T02:43:55;7.90;;;5.38;;
11907;SDS011;6014;47.690;9.130;2023-08-20T02:46:23;8.23;;;6.03;;
11907;SDS011;6014;47.690;9.130;2023-08-20T02:48:51;8.95;;;5.82;;
11907;SDS011;6014;47.690;9.130;2023-08-20T02:51:19;9.68;;;5.97;;
11907;SDS011;6014;47.690;9.130;2023-08-20T02:53:48;8.65;;;5.18;;
11907;SDS011;6014;47.690;9.130;2023-08-20T02:56:16;9.02;;;5.43;;
11907;SDS011;6014;47.690;9.130;2023-08-20T02:58:45;8.50;;;5.18;;
11907;SDS011;6014;47.690;9.130;2023-08-20T03:01:22;12.90;;;5.10;;
11907;SDS011;6014;47.690;9.130;2023-08-20T03:06:30;9.35;;;5.40;;
11907;SDS011;6014;47.690;9.130;2023-08-20T03:09:00;8.05;;;5.38;;
11907;SDS011;6014;47.690;9.130;2023-08-20T03:11:29;8.32;;;4.82;;
11907;SDS011;6014;47.690;9.130;2023-08-20T03:14:04;12.52;;;6.47;;
11907;SDS011;6014;47.690;9.130;2023-08-20T03:16:33;10.38;;;5.53;;
11907;SDS011;6014;47.690;9.130;2023-08-20T03:19:01;8.57;;;5.45;;
11907;SDS011;6014;47.690;9.130;2023-08-20T03:21:29;8.02;;;5.10;;
11907;SDS011;6014;47.690;9.130;2023-08-20T03:23:57;10.18;;;5.60;;
11907;SDS011;6014;47.690;9.130;2023-08-20T03:26:27;8.23;;;5.05;;
11907;SDS011;6014;47.690;9.130;2023-08-20T03:28:55;8.05;;;5.15;;
11907;SDS011;6014;47.690;9.130;2023-08-20T03:31:23;9.68;;;5.63;;
11907;SDS011;6014;47.690;9.130;2023-08-20T03:33:52;8.50;;;5.75;;
11907;SDS011;6014;47.690;9.130;2023-08-20T03:36:20;9.32;;;5.47;;
11907;SDS011;6014;47.690;9.130;2023-08-20T03:38:48;10.05;;;5.55;;
11907;SDS011;6014;47.690;9.130;2023-08-20T03:41:17;7.93;;;5.10;;
11907;SDS011;6014;47.690;9.130;2023-08-20T03:43:45;9.02;;;5.85;;
11907;SDS011;6014;47.690;9.130;2023-08-20T03:46:13;8.10;;;5.50;;
11907;SDS011;6014;47.690;9.130;2023-08-20T03:48:42;7.63;;;5.25;;
11907;SDS011;6014;47.690;9.130;2023-08-20T03:51:11;7.15;;;5.35;;
11907;SDS011;6014;47.690;9.130;2023-08-20T03:53:39;8.13;;;5.85;;
11907;SDS011;6014;47.690;9.130;2023-08-20T03:56:07;9.30;;;5.25;;
11907;SDS011;6014;47.690;9.130;2023-08-20T03:58:36;10.73;;;5.55;;
11907;SDS011;6014;47.690;9.130;2023-08-20T04:01:06;8.27;;;5.82;;
11907;SDS011;6014;47.690;9.130;2023-08-20T04:03:34;12.48;;;5.88;;
11907;SDS011;6014;47.690;9.130;2023-08-20T04:06:02;9.15;;;6.47;;
11907;SDS011;6014;47.690;9.130;2023-08-20T04:08:30;10.80;;;5.45;;
11907;SDS011;6014;47.690;9.130;2023-08-20T04:10:58;9.13;;;5.80;;
11907;SDS011;6014;47.690;9.130;2023-08-20T04:13:26;9.20;;;5.65;;
11907;SDS011;6014;47.690;9.130;2023-08-20T04:15:55;7.70;;;5.03;;
11907;SDS011;6014;47.690;9.130;2023-08-20T04:18:24;7.95;;;5.60;;
11907;SDS011;6014;47.690;9.130;2023-08-20T04:20:52;9.00;;;5.70;;
11907;SDS011;6014;47.690;9.130;2023-08-20T04:23:20;10.75;;;6.95;;
11907;SDS011;6014;47.690;9.130;2023-08-20T04:25:48;10.25;;;5.30;;
11907;SDS011;6014;47.690;9.130;2023-08-20T04:28:16;8.95;;;5.63;;
11907;SDS011;6014;47.690;9.130;2023-08-20T04:30:44;9.68;;;5.85;;
11907;SDS011;6014;47.690;9.130;2023-08-20T04:33:14;10.00;;;6.22;;
11907;SDS011;6014;47.690;9.130;2023-08-20T04:35:42;9.88;;;5.85;;
11907;SDS011;6014;47.690;9.130;2023-08-20T04:38:10;11.65;;;6.43;;
11907;SDS011;6014;47.690;9.130;2023-08-20T04:40:55;8.73;;;6.07;;
11907;SDS011;6014;47.690;9.130;2023-08-20T04:43:24;11.55;;;6.95;;
11907;SDS011;6014;47.690;9.130;2023-08-20T04:45:52;9.35;;;5.93;;
11907;SDS011;6014;47.690;9.130;2023-08-20T04:48:21;8.95;;;6.63;;
11907;SDS011;6014;47.690;9.130;2023-08-20T04:50:55;8.63;;;6.30;;
11907;SDS011;6014;47.690;9.130;2023-08-20T04:53:26;9.35;;;6.10;;
11907;SDS011;6014;47.690;9.130;2023-08-20T04:55:54;8.27;;;6.43;;
11907;SDS011;6014;47.690;9.130;2023-08-20T04:58:23;9.70;;;6.80;;
11907;SDS011;6014;47.690;9.130;2023-08-20T05:00:53;11.07;;;6.90;;
11907;SDS011;6014;47.690;9.130;2023-08-20T05:03:23;8.55;;;6.10;;
11907;SDS011;6014;47.690;9.130;2023-08-20T05:08:30;10.75;;;6.50;;
11907;SDS011;6014;47.690;9.130;2023-08-20T05:11:06;8.77;;;6.22;;
11907;SDS011;6014;47.690;9.130;2023-08-20T05:13:50;9.70;;;6.45;;
11907;SDS011;6014;47.690;9.130;2023-08-20T05:16:18;10.77;;;6.68;;
11907;SDS011;6014;47.690;9.130;2023-08-20T05:21:19;10.23;;;5.97;;
11907;SDS011;6014;47.690;9.130;2023-08-20T05:26:43;10.75;;;6.78;;
11907;SDS011;6014;47.690;9.130;2023-08-20T05:29:11;8.45;;;6.45;;
11907;SDS011;6014;47.690;9.130;2023-08-20T05:31:41;11.43;;;6.88;;
11907;SDS011;6014;47.690;9.130;2023-08-20T05:34:10;9.20;;;6.70;;
11907;SDS011;6014;47.690;9.130;2023-08-20T05:36:39;10.40;;;6.28;;
11907;SDS011;6014;47.690;9.130;2023-08-20T05:39:08;9.35;;;5.72;;
11907;SDS011;6014;47.690;9.130;2023-08-20T05:41:40;10.65;;;5.88;;
11907;SDS011;6014;47.690;9.130;2023-08-20T05:44:09;8.70;;;5.97;;
11907;SDS011;6014;47.690;9.130;2023-08-20T05:46:37;11.98;;;6.47;;
11907;SDS011;6014;47.690;9.130;2023-08-20T05:49:06;9.65;;;6.72;;
11907;SDS011;6014;47.690;9.130;2023-08-20T05:51:36;12.90;;;6.47;;
11907;SDS011;6014;47.690;9.130;2023-08-20T05:54:04;10.30;;;5.50;;
11907;SDS011;6014;47.690;9.130;2023-08-20T05:56:32;9.65;;;6.22;;
11907;SDS011;6014;47.690;9.130;2023-08-20T05:59:00;8.45;;;6.20;;
11907;SDS011;6014;47.690;9.130;2023-08-20T06:01:35;9.77;;;5.70;;
11907;SDS011;6014;47.690;9.130;2023-08-20T06:04:04;8.80;;;6.10;;
11907;SDS011;6014;47.690;9.130;2023-08-20T06:06:32;11.40;;;6.05;;
11907;SDS011;6014;47.690;9.130;2023-08-20T06:09:02;8.45;;;5.93;;
11907;SDS011;6014;47.690;9.130;2023-08-20T06:11:35;9.68;;;6.05;;
11907;SDS011;6014;47.690;9.130;2023-08-20T06:14:03;10.05;;;6.00;;
11907;SDS011;6014;47.690;9.130;2023-08-20T06:16:31;8.32;;;5.45;;
11907;SDS011;6014;47.690;9.130;2023-08-20T06:18:59;10.60;;;5.68;;
11907;SDS011;6014;47.690;9.130;2023-08-20T06:21:40;7.53;;;5.63;;
11907;SDS011;6014;47.690;9.130;2023-08-20T06:24:09;10.52;;;6.00;;
11907;SDS011;6014;47.690;9.130;2023-08-20T06:26:37;9.38;;;5.93;;
11907;SDS011;6014;47.690;9.130;2023-08-20T06:29:05;9.35;;;5.90;;
11907;SDS011;6014;47.690;9.130;2023-08-20T06:31:33;11.55;;;5.43;;
11907;SDS011;6014;47.690;9.130;2023-08-20T06:34:01;8.50;;;5.20;;
11907;SDS011;6014;47.690;9.130;2023-08-20T06:36:30;10.90;;;5.22;;
11907;SDS011;6014;47.690;9.130;2023-08-20T06:38:58;7.18;;;5.30;;
11907;SDS011;6014;47.690;9.130;2023-08-20T06:41:27;9.68;;;5.28;;
11907;SDS011;6014;47.690;9.130;2023-08-20T06:44:04;8.20;;;4.95;;
11907;SDS011;6014;47.690;9.130;2023-08-20T06:46:33;10.20;;;4.93;;
11907;SDS011;6014;47.690;9.130;2023-08-20T06:49:01;8.85;;;5.22;;
11907;SDS011;6014;47.690;9.130;2023-08-20T06:51:35;7.82;;;5.22;;
11907;SDS011;6014;47.690;9.130;2023-08-20T06:54:04;10.77;;;5.45;;
11907;SDS011;6014;47.690;9.130;2023-08-20T06:56:33;8.73;;;5.10;;
11907;SDS011;6014;47.690;9.130;2023-08-20T06:59:01;8.50;;;5.00;;
11907;SDS011;6014;47.690;9.130;2023-08-20T07:01:30;8.95;;;5.15;;
11907;SDS011;6014;47.690;9.130;2023-08-20T07:03:58;9.43;;;5.18;;
11907;SDS011;6014;47.690;9.130;2023-08-20T07:09:01;9.38;;;5.55;;
11907;SDS011;6014;47.690;9.130;2023-08-20T07:11:30;10.07;;;5.22;;
11907;SDS011;6014;47.690;9.130;2023-08-20T07:13:59;10.73;;;5.40;;
11907;SDS011;6014;47.690;9.130;2023-08-20T07:16:27;8.15;;;5.10;;
11907;SDS011;6014;47.690;9.130;2023-08-20T07:18:56;7.97;;;5.15;;
11907;SDS011;6014;47.690;9.130;2023-08-20T07:21:24;9.98;;;4.68;;
11907;SDS011;6014;47.690;9.130;2023-08-20T07:23:52;8.00;;;5.20;;
11907;SDS011;6014;47.690;9.130;2023-08-20T07:26:20;8.32;;;5.57;;
11907;SDS011;6014;47.690;9.130;2023-08-20T07:28:49;8.23;;;5.00;;
11907;SDS011;6014;47.690;9.130;2023-08-20T07:31:28;8.20;;;5.30;;
11907;SDS011;6014;47.690;9.130;2023-08-20T07:33:58;9.30;;;5.18;;
11907;SDS011;6014;47.690;9.130;2023-08-20T07:36:30;7.13;;;4.63;;
11907;SDS011;6014;47.690;9.130;2023-08-20T07:38:58;8.02;;;4.97;;
11907;SDS011;6014;47.690;9.130;2023-08-20T07:41:28;9.85;;;5.43;;
11907;SDS011;6014;47.690;9.130;2023-08-20T07:43:57;9.90;;;5.20;;
11907;SDS011;6014;47.690;9.130;2023-08-20T07:46:25;9.07;;;4.97;;
11907;SDS011;6014;47.690;9.130;2023-08-20T07:48:54;7.13;;;4.57;;
11907;SDS011;6014;47.690;9.130;2023-08-20T07:51:22;7.90;;;5.05;;
11907;SDS011;6014;47.690;9.130;2023-08-20T07:53:51;8.30;;;4.88;;
11907;SDS011;6014;47.690;9.130;2023-08-20T07:56:19;8.75;;;5.18;;
11907;SDS011;6014;47.690;9.130;2023-08-20T07:58:47;7.78;;;5.07;;
11907;SDS011;6014;47.690;9.130;2023-08-20T08:01:15;9.60;;;4.90;;
11907;SDS011;6014;47.690;9.130;2023-08-20T08:03:43;6.90;;;4.80;;
11907;SDS011;6014;47.690;9.130;2023-08-20T08:06:13;9.27;;;5.10;;
11907;SDS011;6014;47.690;9.130;2023-08-20T08:08:42;8.27;;;4.85;;
11907;SDS011;6014;47.690;9.130;2023-08-20T08:11:12;8.55;;;4.80;;
11907;SDS011;6014;47.690;9.130;2023-08-20T08:13:40;7.13;;;4.53;;
11907;SDS011;6014;47.690;9.130;2023-08-20T08:16:08;10.75;;;4.95;;
11907;SDS011;6014;47.690;9.130;2023-08-20T08:18:36;9.52;;;5.03;;
11907;SDS011;6014;47.690;9.130;2023-08-20T08:21:06;8.13;;;5.15;;
11907;SDS011;6014;47.690;9.130;2023-08-20T08:23:36;6.95;;;4.50;;
11907;SDS011;6014;47.690;9.130;2023-08-20T08:26:04;7.78;;;4.78;;
11907;SDS011;6014;47.690;9.130;2023-08-20T08:28:32;8.93;;;4.75;;
11907;SDS011;6014;47.690;9.130;2023-08-20T08:31:00;6.93;;;4.47;;
11907;SDS011;6014;47.690;9.130;2023-08-20T08:33:32;7.35;;;4.63;;
11907;SDS011;6014;47.690;9.130;2023-08-20T08:36:00;9.75;;;4.57;;
11907;SDS011;6014;47.690;9.130;2023-08-20T08:38:30;7.53;;;4.97;;
11907;SDS011;6014;47.690;9.130;2023-08-20T08:40:59;7.45;;;4.78;;
11907;SDS011;6014;47.690;9.130;2023-08-20T08:43:28;7.20;;;4.55;;
11907;SDS011;6014;47.690;9.130;2023-08-20T08:45:57;7.20;;;4.63;;
11907;SDS011;6014;47.690;9.130;2023-08-20T08:48:28;9.40;;;4.60;;
11907;SDS011;6014;47.690;9.130;2023-08-20T08:50:56;7.55;;;4.50;;
11907;SDS011;6014;47.690;9.130;2023-08-20T08:53:24;8.68;;;4.72;;
11907;SDS011;6014;47.690;9.130;2023-08-20T08:55:52;7.85;;;4.65;;
11907;SDS011;6014;47.690;9.130;2023-08-20T08:58:22;7.68;;;4.80;;
11907;SDS011;6014;47.690;9.130;2023-08-20T09:00:50;7.38;;;4.53;;
11907;SDS011;6014;47.690;9.130;2023-08-20T09:03:18;8.98;;;4.60;;
11907;SDS011;6014;47.690;9.130;2023-08-20T09:05:47;8.40;;;4.65;;
11907;SDS011;6014;47.690;9.130;2023-08-20T09:08:19;10.68;;;4.72;;
11907;SDS011;6014;47.690;9.130;2023-08-20T09:10:49;6.68;;;4.57;;
11907;SDS011;6014;47.690;9.130;2023-08-20T09:13:23;8.00;;;4.70;;
11907;SDS011;6014;47.690;9.130;2023-08-20T09:15:52;7.28;;;4.38;;
11907;SDS011;6014;47.690;9.130;2023-08-20T09:18:20;7.18;;;4.72;;
11907;SDS011;6014;47.690;9.130;2023-08-20T09:20:48;10.52;;;5.45;;
11907;SDS011;6014;47.690;9.130;2023-08-20T09:23:17;6.93;;;4.53;;
11907;SDS011;6014;47.690;9.130;2023-08-20T09:25:45;9.55;;;4.60;;
11907;SDS011;6014;47.690;9.130;2023-08-20T09:28:13;10.15;;;4.40;;
11907;SDS011;6014;47.690;9.130;2023-08-20T09:30:55;9.25;;;5.13;;
11907;SDS011;6014;47.690;9.130;2023-08-20T09:33:24;7.45;;;4.97;;
11907;SDS011;6014;47.690;9.130;2023-08-20T09:35:54;7.30;;;4.65;;
11907;SDS011;6014;47.690;9.130;2023-08-20T09:38:23;7.97;;;4.75;;
11907;SDS011;6014;47.690;9.130;2023-08-20T09:40:52;6.88;;;4.38;;
11907;SDS011;6014;47.690;9.130;2023-08-20T09:43:23;8.10;;;4.65;;
11907;SDS011;6014;47.690;9.130;2023-08-20T09:45:55;8.48;;;4.70;;
11907;SDS011;6014;47.690;9.130;2023-08-20T09:48:29;7.35;;;5.10;;
11907;SDS011;6014;47.690;9.130;2023-08-20T09:51:03;8.25;;;4.72;;
11907;SDS011;6014;47.690;9.130;2023-08-20T09:53:33;6.93;;;4.55;;
11907;SDS011;6014;47.690;9.130;2023-08-20T09:56:03;8.73;;;4.88;;
11907;SDS011;6014;47.690;9.130;2023-08-20T09:58:37;8.70;;;4.60;;
11907;SDS011;6014;47.690;9.130;2023-08-20T10:01:08;8.13;;;4.68;;
11907;SDS011;6014;47.690;9.130;2023-08-20T10:03:37;7.70;;;4.72;;
11907;SDS011;6014;47.690;9.130;2023-08-20T10:06:05;10.02;;;5.22;;
11907;SDS011;6014;47.690;9.130;2023-08-20T10:08:33;6.90;;;4.97;;
11907;SDS011;6014;47.690;9.130;2023-08-20T10:11:02;7.25;;;4.45;;
11907;SDS011;6014;47.690;9.130;2023-08-20T10:13:30;8.70;;;4.90;;
11907;SDS011;6014;47.690;9.130;2023-08-20T10:15:58;9.63;;;4.65;;
11907;SDS011;6014;47.690;9.130;2023-08-20T10:18:28;6.70;;;4.25;;
11907;SDS011;6014;47.690;9.130;2023-08-20T10:20:57;8.43;;;4.43;;
11907;SDS011;6014;47.690;9.130;2023-08-20T10:23:34;7.55;;;4.60;;
11907;SDS011;6014;47.690;9.130;2023-08-20T10:26:06;7.40;;;4.47;;
11907;SDS011;6014;47.690;9.130;2023-08-20T10:28:35;7.63;;;4.07;;
11907;SDS011;6014;47.690;9.130;2023-08-20T10:31:04;7.55;;;4.03;;
11907;SDS011;6014;47.690;9.130;2023-08-20T10:33:36;8.50;;;4.18;;
11907;SDS011;6014;47.690;9.130;2023-08-20T10:36:08;7.15;;;3.85;;
11907;SDS011;6014;47.690;9.130;2023-08-20T10:38:37;12.02;;;4.50;;
11907;SDS011;6014;47.690;9.130;2023-08-20T10:41:06;7.97;;;4.15;;
11907;SDS011;6014;47.690;9.130;2023-08-20T10:43:36;6.22;;;3.72;;
11907;SDS011;6014;47.690;9.130;2023-08-20T10:46:06;7.93;;;4.22;;
11907;SDS011;6014;47.690;9.130;2023-08-20T10:48:38;7.72;;;4.28;;
11907;SDS011;6014;47.690;9.130;2023-08-20T10:51:07;7.85;;;4.78;;
11907;SDS011;6014;47.690;9.130;2023-08-20T10:53:40;6.28;;;4.20;;
11907;SDS011;6014;47.690;9.130;2023-08-20T10:56:13;8.15;;;3.92;;
11907;SDS011;6014;47.690;9.130;2023-08-20T10:58:43;7.20;;;3.80;;
11907;SDS011;6014;47.690;9.130;2023-08-20T11:01:13;9.07;;;4.30;;
11907;SDS011;6014;47.690;9.130;2023-08-20T11:03:44;8.30;;;4.00;;
11907;SDS011;6014;47.690;9.130;2023-08-20T11:06:12;7.10;;;3.78;;
11907;SDS011;6014;47.690;9.130;2023-08-20T11:08:41;9.02;;;4.00;;
11907;SDS011;6014;47.690;9.130;2023-08-20T11:11:10;8.00;;;4.13;;
11907;SDS011;6014;47.690;9.130;2023-08-20T11:13:39;7.95;;;4.18;;
11907;SDS011;6014;47.690;9.130;2023-08-20T11:16:12;7.88;;;4.07;;
11907;SDS011;6014;47.690;9.130;2023-08-20T11:18:40;7.00;;;3.80;;
11907;SDS011;6014;47.690;9.130;2023-08-20T11:21:10;10.43;;;4.18;;
11907;SDS011;6014;47.690;9.130;2023-08-20T11:23:39;10.10;;;4.43;;
11907;SDS011;6014;47.690;9.130;2023-08-20T11:26:09;9.02;;;3.60;;
11907;SDS011;6014;47.690;9.130;2023-08-20T11:28:38;8.10;;;3.88;;
11907;SDS011;6014;47.690;9.130;2023-08-20T11:31:06;8.25;;;3.80;;
11907;SDS011;6014;47.690;9.130;2023-08-20T11:33:35;8.10;;;4.22;;
11907;SDS011;6014;47.690;9.130;2023-08-20T11:36:03;7.07;;;3.75;;
11907;SDS011;6014;47.690;9.130;2023-08-20T11:38:35;8.60;;;3.80;;
11907;SDS011;6014;47.690;9.130;2023-08-20T11:41:03;7.75;;;3.38;;
11907;SDS011;6014;47.690;9.130;2023-08-20T11:43:32;12.68;;;3.88;;
11907;SDS011;6014;47.690;9.130;2023-08-20T11:46:00;12.50;;;4.45;;
11907;SDS011;6014;47.690;9.130;2023-08-20T11:48:28;8.40;;;3.95;;
11907;SDS011;6014;47.690;9.130;2023-08-20T11:50:56;8.63;;;3.90;;
11907;SDS011;6014;47.690;9.130;2023-08-20T11:53:25;10.55;;;3.97;;
11907;SDS011;6014;47.690;9.130;2023-08-20T11:55:57;11.68;;;4.10;;
11907;SDS011;6014;47.690;9.130;2023-08-20T11:58:28;6.82;;;3.70;;
11907;SDS011;6014;47.690;9.130;2023-08-20T12:00:56;6.05;;;3.90;;
11907;SDS011;6014;47.690;9.130;2023-08-20T12:03:28;7.65;;;3.65;;
11907;SDS011;6014;47.690;9.130;2023-08-20T12:08:44;8.05;;;3.92;;
11907;SDS011;6014;47.690;9.130;2023-08-20T12:11:13;8.23;;;4.07;;
11907;SDS011;6014;47.690;9.130;2023-08-20T12:13:42;9.13;;;3.95;;
11907;SDS011;6014;47.690;9.130;2023-08-20T12:16:10;7.10;;;4.07;;
11907;SDS011;6014;47.690;9.130;2023-08-20T12:18:38;8.02;;;4.63;;
11907;SDS011;6014;47.690;9.130;2023-08-20T12:21:06;9.02;;;4.03;;
11907;SDS011;6014;47.690;9.130;2023-08-20T12:23:34;7.50;;;4.15;;
11907;SDS011;6014;47.690;9.130;2023-08-20T12:26:02;7.15;;;4.13;;
11907;SDS011;6014;47.690;9.130;2023-08-20T12:28:32;7.70;;;3.97;;
11907;SDS011;6014;47.690;9.130;2023-08-20T12:31:00;7.65;;;3.58;;
11907;SDS011;6014;47.690;9.130;2023-08-20T12:33:29;8.10;;;4.22;;
11907;SDS011;6014;47.690;9.130;2023-08-20T12:35:57;8.27;;;4.05;;
11907;SDS011;6014;47.690;9.130;2023-08-20T12:38:26;5.15;;;3.40;;
11907;SDS011;6014;47.690;9.130;2023-08-20T12:40:59;9.00;;;3.60;;
11907;SDS011;6014;47.690;9.130;2023-08-20T12:43:30;7.72;;;3.60;;
11907;SDS011;6014;47.690;9.130;2023-08-20T12:45:59;6.97;;;3.70;;
11907;SDS011;6014;47.690;9.130;2023-08-20T12:48:27;5.93;;;3.40;;
11907;SDS011;6014;47.690;9.130;2023-08-20T12:50:56;6.45;;;3.53;;
11907;SDS011;6014;47.690;9.130;2023-08-20T12:53:24;7.43;;;3.72;;
11907;SDS011;6014;47.690;9.130;2023-08-20T12:55:52;5.85;;;3.13;;
11907;SDS011;6014;47.690;9.130;2023-08-20T12:58:20;5.10;;;3.22;;
11907;SDS011;6014;47.690;9.130;2023-08-20T13:00:48;6.75;;;3.60;;
11907;SDS011;6014;47.690;9.130;2023-08-20T13:03:18;6.40;;;3.00;;
11907;SDS011;6014;47.690;9.130;2023-08-20T13:05:47;5.75;;;2.72;;
11907;SDS011;6014;47.690;9.130;2023-08-20T13:08:15;11.55;;;3.30;;
11907;SDS011;6014;47.690;9.130;2023-08-20T13:10:45;6.72;;;3.05;;
11907;SDS011;6014;47.690;9.130;2023-08-20T13:13:17;8.55;;;3.15;;
11907;SDS011;6014;47.690;9.130;2023-08-20T13:18:29;9.98;;;3.42;;
11907;SDS011;6014;47.690;9.130;2023-08-20T13:20:57;4.85;;;3.00;;
11907;SDS011;6014;47.690;9.130;2023-08-20T13:23:25;6.65;;;3.30;;
11907;SDS011;6014;47.690;9.130;2023-08-20T13:25:53;4.85;;;3.05;;
11907;SDS011;6014;47.690;9.130;2023-08-20T13:28:21;6.35;;;3.22;;
11907;SDS011;6014;47.690;9.130;2023-08-20T13:30:49;7.57;;;3.30;;
11907;SDS011;6014;47.690;9.130;2023-08-20T13:33:18;6.78;;;3.72;;
11907;SDS011;6014;47.690;9.130;2023-08-20T13:35:48;7.18;;;3.83;;
11907;SDS011;6014;47.690;9.130;2023-08-20T13:38:16;7.82;;;3.55;;
11907;SDS011;6014;47.690;9.130;2023-08-20T13:40:45;5.25;;;3.00;;
11907;SDS011;6014;47.690;9.130;2023-08-20T13:43:13;8.27;;;3.67;;
11907;SDS011;6014;47.690;9.130;2023-08-20T13:45:41;6.25;;;3.35;;
11907;SDS011;6014;47.690;9.130;2023-08-20T13:48:09;6.38;;;2.90;;
11907;SDS011;6014;47.690;9.130;2023-08-20T13:50:37;7.80;;;3.22;;
11907;SDS011;6014;47.690;9.130;2023-08-20T13:53:07;8.05;;;3.05;;
11907;SDS011;6014;47.690;9.130;2023-08-20T13:55:36;6.28;;;2.50;;
11907;SDS011;6014;47.690;9.130;2023-08-20T13:58:04;5.18;;;3.00;;
11907;SDS011;6014;47.690;9.130;2023-08-20T14:00:35;5.93;;;2.55;;
11907;SDS011;6014;47.690;9.130;2023-08-20T14:03:04;5.95;;;2.33;;
11907;SDS011;6014;47.690;9.130;2023-08-20T14:05:32;7.05;;;2.53;;
11907;SDS011;6014;47.690;9.130;2023-08-20T14:08:00;5.72;;;2.33;;
11907;SDS011;6014;47.690;9.130;2023-08-20T14:10:30;5.18;;;2.80;;
11907;SDS011;6014;47.690;9.130;2023-08-20T14:12:58;7.88;;;2.58;;
11907;SDS011;6014;47.690;9.130;2023-08-20T14:15:26;6.78;;;2.50;;
11907;SDS011;6014;47.690;9.130;2023-08-20T14:17:55;5.00;;;2.50;;
11907;SDS011;6014;47.690;9.130;2023-08-20T14:20:23;5.60;;;2.05;;
11907;SDS011;6014;47.690;9.130;2023-08-20T14:22:51;5.03;;;2.38;;
11907;SDS011;6014;47.690;9.130;2023-08-20T14:25:19;5.13;;;1.92;;
11907;SDS011;6014;47.690;9.130;2023-08-20T14:27:49;7.05;;;2.00;;
11907;SDS011;6014;47.690;9.130;2023-08-20T14:30:17;6.28;;;2.33;;
11907;SDS011;6014;47.690;9.130;2023-08-20T14:32:45;4.95;;;2.35;;
11907;SDS011;6014;47.690;9.130;2023-08-20T14:35:20;8.15;;;2.65;;
11907;SDS011;6014;47.690;9.130;2023-08-20T14:37:51;4.43;;;2.00;;
11907;SDS011;6014;47.690;9.130;2023-08-20T14:40:20;7.95;;;2.63;;
11907;SDS011;6014;47.690;9.130;2023-08-20T14:42:49;6.20;;;1.98;;
11907;SDS011;6014;47.690;9.130;2023-08-20T14:45:18;5.15;;;2.13;;
11907;SDS011;6014;47.690;9.130;2023-08-20T14:47:46;5.22;;;2.17;;
11907;SDS011;6014;47.690;9.130;2023-08-20T14:50:14;7.10;;;2.20;;
11907;SDS011;6014;47.690;9.130;2023-08-20T14:52:42;5.00;;;2.30;;
11907;SDS011;6014;47.690;9.130;2023-08-20T14:55:10;4.72;;;2.22;;
11907;SDS011;6014;47.690;9.130;2023-08-20T14:57:39;4.78;;;2.00;;
11907;SDS011;6014;47.690;9.130;2023-08-20T15:03:28;4.00;;;1.75;;
11907;SDS011;6014;47.690;9.130;2023-08-20T15:05:56;5.60;;;2.10;;
11907;SDS011;6014;47.690;9.130;2023-08-20T15:08:24;4.13;;;1.90;;
11907;SDS011;6014;47.690;9.130;2023-08-20T15:10:55;4.88;;;1.80;;
11907;SDS011;6014;47.690;9.130;2023-08-20T15:13:26;4.47;;;1.95;;
11907;SDS011;6014;47.690;9.130;2023-08-20T15:15:54;4.18;;;2.00;;
11907;SDS011;6014;47.690;9.130;2023-08-20T15:18:23;6.97;;;2.00;;
11907;SDS011;6014;47.690;9.130;2023-08-20T15:20:55;4.07;;;1.95;;
11907;SDS011;6014;47.690;9.130;2023-08-20T15:23:25;7.32;;;2.00;;
11907;SDS011;6014;47.690;9.130;2023-08-20T15:25:55;6.63;;;1.90;;
11907;SDS011;6014;47.690;9.130;2023-08-20T15:28:24;5.60;;;1.70;;
11907;SDS011;6014;47.690;9.130;2023-08-20T15:30:54;2.45;;;1.38;;
11907;SDS011;6014;47.690;9.130;2023-08-20T15:33:23;5.95;;;2.05;;
11907;SDS011;6014;47.690;9.130;2023-08-20T15:35:51;4.07;;;1.52;;
11907;SDS011;6014;47.690;9.130;2023-08-20T15:38:21;3.45;;;1.67;;
11907;SDS011;6014;47.690;9.130;2023-08-20T15:40:49;4.07;;;1.88;;
11907;SDS011;6014;47.690;9.130;2023-08-20T15:43:17;6.38;;;2.25;;
11907;SDS011;6014;47.690;9.130;2023-08-20T15:45:46;8.52;;;2.08;;
11907;SDS011;6014;47.690;9.130;2023-08-20T15:48:15;3.42;;;1.60;;